sensor_id;sensor_type;location;lat;lon;timestamp;temperature;humidity
66752;SHT31;53663;42.676;23.238;2022-10-16T00:01:38;7.53;80.96
66752;SHT31;53663;42.676;23.238;2022-10-16T00:04:03;7.53;81.18
66752;SHT31;53663;42.676;23.238;2022-10-16T00:06:30;7.52;80.97
66752;SHT31;53663;42.676;23.238;2022-10-16T00:08:56;7.52;81.28
66752;SHT31;53663;42.676;23.238;2022-10-16T00:11:27;7.52;81.34
66752;SHT31;53663;42.676;23.238;2022-10-16T00:13:57;7.46;81.33
66752;SHT31;53663;42.676;23.238;2022-10-16T00:16:23;7.39;81.40
66752;SHT31;53663;42.676;23.238;2022-10-16T00:18:48;7.35;81.61
66752;SHT31;53663;42.676;23.238;2022-10-16T00:21:17;7.33;81.73
66752;SHT31;53663;42.676;23.238;2022-10-16T00:23:43;7.36;81.75
66752;SHT31;53663;42.676;23.238;2022-10-16T00:26:13;7.33;82.06
66752;SHT31;53663;42.676;23.238;2022-10-16T00:28:39;7.29;81.73
66752;SHT31;53663;42.676;23.238;2022-10-16T00:31:07;7.25;81.80
66752;SHT31;53663;42.676;23.238;2022-10-16T00:33:33;7.22;82.22
66752;SHT31;53663;42.676;23.238;2022-10-16T00:35:59;7.26;82.19
66752;SHT31;53663;42.676;23.238;2022-10-16T00:38:25;7.33;81.70
66752;SHT31;53663;42.676;23.238;2022-10-16T00:40:51;7.32;81.62
66752;SHT31;53663;42.676;23.238;2022-10-16T00:46:16;7.26;81.81
66752;SHT31;53663;42.676;23.238;2022-10-16T00:48:50;7.18;81.73
66752;SHT31;53663;42.676;23.238;2022-10-16T00:51:19;7.19;81.80
66752;SHT31;53663;42.676;23.238;2022-10-16T00:53:48;7.18;81.83
66752;SHT31;53663;42.676;23.238;2022-10-16T00:56:13;7.18;81.64
66752;SHT31;53663;42.676;23.238;2022-10-16T00:58:39;7.09;81.81
66752;SHT31;53663;42.676;23.238;2022-10-16T01:01:05;7.05;82.18
66752;SHT31;53663;42.676;23.238;2022-10-16T01:03:36;7.05;81.97
66752;SHT31;53663;42.676;23.238;2022-10-16T01:11:57;6.97;82.14
66752;SHT31;53663;42.676;23.238;2022-10-16T01:14:42;6.94;82.03
66752;SHT31;53663;42.676;23.238;2022-10-16T01:17:18;6.97;82.06
66752;SHT31;53663;42.676;23.238;2022-10-16T01:20:02;6.91;82.12
66752;SHT31;53663;42.676;23.238;2022-10-16T01:25:12;6.89;82.31
66752;SHT31;53663;42.676;23.238;2022-10-16T01:27:40;6.81;82.52
66752;SHT31;53663;42.676;23.238;2022-10-16T01:30:18;6.77;83.19
66752;SHT31;53663;42.676;23.238;2022-10-16T01:33:01;6.68;83.34
66752;SHT31;53663;42.676;23.238;2022-10-16T01:35:40;6.60;83.91
66752;SHT31;53663;42.676;23.238;2022-10-16T01:38:18;6.63;84.02
66752;SHT31;53663;42.676;23.238;2022-10-16T01:40:47;6.71;83.92
66752;SHT31;53663;42.676;23.238;2022-10-16T01:43:19;6.54;84.56
66752;SHT31;53663;42.676;23.238;2022-10-16T01:45:45;6.60;84.47
66752;SHT31;53663;42.676;23.238;2022-10-16T01:48:19;6.48;84.60
66752;SHT31;53663;42.676;23.238;2022-10-16T01:50:54;6.57;84.62
66752;SHT31;53663;42.676;23.238;2022-10-16T01:53:21;6.66;83.99
66752;SHT31;53663;42.676;23.238;2022-10-16T01:55:48;6.68;83.54
66752;SHT31;53663;42.676;23.238;2022-10-16T01:58:15;6.66;83.59
66752;SHT31;53663;42.676;23.238;2022-10-16T02:00:44;6.64;83.69
66752;SHT31;53663;42.676;23.238;2022-10-16T02:03:12;6.64;83.63
66752;SHT31;53663;42.676;23.238;2022-10-16T02:05:40;6.60;83.51
66752;SHT31;53663;42.676;23.238;2022-10-16T02:08:06;6.63;83.25
66752;SHT31;53663;42.676;23.238;2022-10-16T02:10:34;6.57;83.17
66752;SHT31;53663;42.676;23.238;2022-10-16T02:15:31;6.57;83.56
66752;SHT31;53663;42.676;23.238;2022-10-16T02:17:57;6.54;83.54
66752;SHT31;53663;42.676;23.238;2022-10-16T02:20:27;6.56;83.48
66752;SHT31;53663;42.676;23.238;2022-10-16T02:22:54;6.46;83.74
66752;SHT31;53663;42.676;23.238;2022-10-16T02:25:30;6.44;83.84
66752;SHT31;53663;42.676;23.238;2022-10-16T02:28:11;6.43;84.33
66752;SHT31;53663;42.676;23.238;2022-10-16T02:30:43;6.47;84.10
66752;SHT31;53663;42.676;23.238;2022-10-16T02:33:12;6.41;84.03
66752;SHT31;53663;42.676;23.238;2022-10-16T02:35:42;6.40;83.97
66752;SHT31;53663;42.676;23.238;2022-10-16T02:38:09;6.33;84.00
66752;SHT31;53663;42.676;23.238;2022-10-16T02:40:35;6.32;83.71
66752;SHT31;53663;42.676;23.238;2022-10-16T02:43:03;6.36;83.63
66752;SHT31;53663;42.676;23.238;2022-10-16T02:45:29;6.26;83.66
66752;SHT31;53663;42.676;23.238;2022-10-16T02:47:55;6.18;83.97
66752;SHT31;53663;42.676;23.238;2022-10-16T02:50:21;6.23;83.63
66752;SHT31;53663;42.676;23.238;2022-10-16T02:52:47;6.27;83.56
66752;SHT31;53663;42.676;23.238;2022-10-16T02:55:12;6.30;83.43
66752;SHT31;53663;42.676;23.238;2022-10-16T02:57:38;6.29;83.26
66752;SHT31;53663;42.676;23.238;2022-10-16T03:00:06;6.29;83.50
66752;SHT31;53663;42.676;23.238;2022-10-16T03:02:32;6.19;83.54
66752;SHT31;53663;42.676;23.238;2022-10-16T03:04:58;6.15;83.66
66752;SHT31;53663;42.676;23.238;2022-10-16T03:07:23;6.13;83.63
66752;SHT31;53663;42.676;23.238;2022-10-16T03:09:49;6.08;83.92
66752;SHT31;53663;42.676;23.238;2022-10-16T03:12:14;6.15;83.45
66752;SHT31;53663;42.676;23.238;2022-10-16T03:14:40;6.09;83.52
66752;SHT31;53663;42.676;23.238;2022-10-16T03:17:05;6.06;83.54
66752;SHT31;53663;42.676;23.238;2022-10-16T03:19:31;6.02;83.55
66752;SHT31;53663;42.676;23.238;2022-10-16T03:21:57;5.98;83.60
66752;SHT31;53663;42.676;23.238;2022-10-16T03:24:22;5.98;83.70
66752;SHT31;53663;42.676;23.238;2022-10-16T03:26:48;5.97;83.66
66752;SHT31;53663;42.676;23.238;2022-10-16T03:29:13;5.98;83.79
66752;SHT31;53663;42.676;23.238;2022-10-16T03:31:39;5.92;83.98
66752;SHT31;53663;42.676;23.238;2022-10-16T03:34:04;5.89;83.49
66752;SHT31;53663;42.676;23.238;2022-10-16T03:36:30;5.84;83.62
66752;SHT31;53663;42.676;23.238;2022-10-16T03:38:56;5.75;84.14
66752;SHT31;53663;42.676;23.238;2022-10-16T03:41:22;5.79;83.83
66752;SHT31;53663;42.676;23.238;2022-10-16T03:43:47;5.81;83.64
66752;SHT31;53663;42.676;23.238;2022-10-16T03:46:13;5.74;83.78
66752;SHT31;53663;42.676;23.238;2022-10-16T03:48:38;5.70;83.86
66752;SHT31;53663;42.676;23.238;2022-10-16T03:51:05;5.71;83.95
66752;SHT31;53663;42.676;23.238;2022-10-16T03:53:31;5.68;84.05
66752;SHT31;53663;42.676;23.238;2022-10-16T03:55:56;5.67;84.31
66752;SHT31;53663;42.676;23.238;2022-10-16T03:58:22;5.65;84.32
66752;SHT31;53663;42.676;23.238;2022-10-16T04:00:48;5.68;84.35
66752;SHT31;53663;42.676;23.238;2022-10-16T04:03:13;5.58;84.60
66752;SHT31;53663;42.676;23.238;2022-10-16T04:05:39;5.50;84.85
66752;SHT31;53663;42.676;23.238;2022-10-16T04:08:05;5.47;85.39
66752;SHT31;53663;42.676;23.238;2022-10-16T04:10:30;5.55;85.22
66752;SHT31;53663;42.676;23.238;2022-10-16T04:12:56;5.62;84.98
66752;SHT31;53663;42.676;23.238;2022-10-16T04:15:22;5.64;84.81
66752;SHT31;53663;42.676;23.238;2022-10-16T04:17:48;5.68;84.81
66752;SHT31;53663;42.676;23.238;2022-10-16T04:20:14;5.71;84.48
66752;SHT31;53663;42.676;23.238;2022-10-16T04:22:40;5.61;84.13
66752;SHT31;53663;42.676;23.238;2022-10-16T04:25:06;5.58;84.30
66752;SHT31;53663;42.676;23.238;2022-10-16T04:27:31;5.54;84.39
66752;SHT31;53663;42.676;23.238;2022-10-16T04:29:58;5.50;84.63
66752;SHT31;53663;42.676;23.238;2022-10-16T04:32:24;5.55;84.53
66752;SHT31;53663;42.676;23.238;2022-10-16T04:34:49;5.57;84.14
66752;SHT31;53663;42.676;23.238;2022-10-16T04:37:15;5.51;83.94
66752;SHT31;53663;42.676;23.238;2022-10-16T04:39:40;5.50;84.14
66752;SHT31;53663;42.676;23.238;2022-10-16T04:42:06;5.46;84.00
66752;SHT31;53663;42.676;23.238;2022-10-16T04:44:31;5.47;84.19
66752;SHT31;53663;42.676;23.238;2022-10-16T04:46:57;5.48;84.13
66752;SHT31;53663;42.676;23.238;2022-10-16T04:49:22;5.43;84.19
66752;SHT31;53663;42.676;23.238;2022-10-16T04:51:48;5.48;84.53
66752;SHT31;53663;42.676;23.238;2022-10-16T04:54:13;5.50;84.80
66752;SHT31;53663;42.676;23.238;2022-10-16T04:56:39;5.39;85.15
66752;SHT31;53663;42.676;23.238;2022-10-16T04:59:16;5.50;84.85
66752;SHT31;53663;42.676;23.238;2022-10-16T05:01:42;5.44;84.89
66752;SHT31;53663;42.676;23.238;2022-10-16T05:04:07;5.55;84.59
66752;SHT31;53663;42.676;23.238;2022-10-16T05:06:33;5.70;84.35
66752;SHT31;53663;42.676;23.238;2022-10-16T05:08:59;5.85;83.54
66752;SHT31;53663;42.676;23.238;2022-10-16T05:11:24;6.02;83.43
66752;SHT31;53663;42.676;23.238;2022-10-16T05:13:50;6.43;82.83
66752;SHT31;53663;42.676;23.238;2022-10-16T05:16:16;6.76;81.83
66752;SHT31;53663;42.676;23.238;2022-10-16T05:18:41;7.62;79.54
66752;SHT31;53663;42.676;23.238;2022-10-16T05:21:07;8.77;75.70
66752;SHT31;53663;42.676;23.238;2022-10-16T05:23:33;10.04;72.40
66752;SHT31;53663;42.676;23.238;2022-10-16T05:25:59;11.43;68.15
66752;SHT31;53663;42.676;23.238;2022-10-16T05:28:26;12.64;62.65
66752;SHT31;53663;42.676;23.238;2022-10-16T05:30:52;13.87;60.01
66752;SHT31;53663;42.676;23.238;2022-10-16T05:33:20;15.11;56.29
66752;SHT31;53663;42.676;23.238;2022-10-16T05:35:46;16.10;51.17
66752;SHT31;53663;42.676;23.238;2022-10-16T05:38:11;16.99;49.41
66752;SHT31;53663;42.676;23.238;2022-10-16T05:40:37;18.08;46.75
66752;SHT31;53663;42.676;23.238;2022-10-16T05:43:03;19.11;44.69
66752;SHT31;53663;42.676;23.238;2022-10-16T05:45:28;19.76;42.31
66752;SHT31;53663;42.676;23.238;2022-10-16T05:47:54;19.98;42.59
66752;SHT31;53663;42.676;23.238;2022-10-16T05:50:19;21.03;40.23
66752;SHT31;53663;42.676;23.238;2022-10-16T05:52:45;21.40;38.08
66752;SHT31;53663;42.676;23.238;2022-10-16T05:55:11;22.23;37.56
66752;SHT31;53663;42.676;23.238;2022-10-16T05:57:36;22.78;36.33
66752;SHT31;53663;42.676;23.238;2022-10-16T06:00:03;23.43;35.65
66752;SHT31;53663;42.676;23.238;2022-10-16T06:02:38;24.45;33.63
66752;SHT31;53663;42.676;23.238;2022-10-16T06:05:04;25.24;32.30
66752;SHT31;53663;42.676;23.238;2022-10-16T06:07:34;25.46;31.29
66752;SHT31;53663;42.676;23.238;2022-10-16T06:09:59;26.26;30.43
66752;SHT31;53663;42.676;23.238;2022-10-16T06:12:26;25.85;30.79
66752;SHT31;53663;42.676;23.238;2022-10-16T06:14:52;26.22;29.99
66752;SHT31;53663;42.676;23.238;2022-10-16T06:17:18;24.90;31.96
66752;SHT31;53663;42.676;23.238;2022-10-16T06:19:43;25.19;31.37
66752;SHT31;53663;42.676;23.238;2022-10-16T06:22:09;23.80;34.03
66752;SHT31;53663;42.676;23.238;2022-10-16T06:24:34;25.60;31.61
66752;SHT31;53663;42.676;23.238;2022-10-16T06:27:00;25.98;30.12
66752;SHT31;53663;42.676;23.238;2022-10-16T06:29:26;25.81;30.66
66752;SHT31;53663;42.676;23.238;2022-10-16T06:31:51;25.10;31.01
66752;SHT31;53663;42.676;23.238;2022-10-16T06:34:18;25.57;30.47
66752;SHT31;53663;42.676;23.238;2022-10-16T06:36:43;25.77;29.89
66752;SHT31;53663;42.676;23.238;2022-10-16T06:39:09;27.37;28.74
66752;SHT31;53663;42.676;23.238;2022-10-16T06:41:35;28.41;27.06
66752;SHT31;53663;42.676;23.238;2022-10-16T06:44:13;26.46;29.22
66752;SHT31;53663;42.676;23.238;2022-10-16T06:46:39;23.14;35.02
66752;SHT31;53663;42.676;23.238;2022-10-16T06:49:04;26.23;29.52
66752;SHT31;53663;42.676;23.238;2022-10-16T06:51:30;28.48;26.80
66752;SHT31;53663;42.676;23.238;2022-10-16T06:53:57;27.24;27.89
66752;SHT31;53663;42.676;23.238;2022-10-16T06:56:25;27.29;27.96
66752;SHT31;53663;42.676;23.238;2022-10-16T06:58:51;28.98;25.35
66752;SHT31;53663;42.676;23.238;2022-10-16T07:01:19;25.40;30.42
66752;SHT31;53663;42.676;23.238;2022-10-16T07:03:46;25.40;31.77
66752;SHT31;53663;42.676;23.238;2022-10-16T07:06:18;27.35;27.80
66752;SHT31;53663;42.676;23.238;2022-10-16T07:08:46;29.13;25.88
66752;SHT31;53663;42.676;23.238;2022-10-16T07:11:22;28.21;26.55
66752;SHT31;53663;42.676;23.238;2022-10-16T07:13:48;28.59;26.09
66752;SHT31;53663;42.676;23.238;2022-10-16T07:16:16;28.62;26.51
66752;SHT31;53663;42.676;23.238;2022-10-16T07:18:43;27.69;27.72
66752;SHT31;53663;42.676;23.238;2022-10-16T07:21:13;28.92;25.61
66752;SHT31;53663;42.676;23.238;2022-10-16T07:23:39;27.29;27.56
66752;SHT31;53663;42.676;23.238;2022-10-16T07:26:05;27.59;27.81
66752;SHT31;53663;42.676;23.238;2022-10-16T07:28:32;27.56;26.58
66752;SHT31;53663;42.676;23.238;2022-10-16T07:31:06;30.06;24.50
66752;SHT31;53663;42.676;23.238;2022-10-16T07:33:33;29.12;25.52
66752;SHT31;53663;42.676;23.238;2022-10-16T07:35:59;29.85;25.07
66752;SHT31;53663;42.676;23.238;2022-10-16T07:38:25;30.76;23.21
66752;SHT31;53663;42.676;23.238;2022-10-16T07:40:58;28.47;26.25
66752;SHT31;53663;42.676;23.238;2022-10-16T07:43:25;29.54;25.37
66752;SHT31;53663;42.676;23.238;2022-10-16T07:45:52;28.06;27.03
66752;SHT31;53663;42.676;23.238;2022-10-16T07:48:18;27.10;28.18
66752;SHT31;53663;42.676;23.238;2022-10-16T07:50:44;25.91;30.59
66752;SHT31;53663;42.676;23.238;2022-10-16T07:53:11;29.31;25.59
66752;SHT31;53663;42.676;23.238;2022-10-16T07:55:37;29.93;25.20
66752;SHT31;53663;42.676;23.238;2022-10-16T07:58:03;31.70;23.18
66752;SHT31;53663;42.676;23.238;2022-10-16T08:00:30;31.29;23.73
66752;SHT31;53663;42.676;23.238;2022-10-16T08:02:59;29.92;25.32
66752;SHT31;53663;42.676;23.238;2022-10-16T08:05:28;29.26;25.98
66752;SHT31;53663;42.676;23.238;2022-10-16T08:07:54;27.15;27.91
66752;SHT31;53663;42.676;23.238;2022-10-16T08:10:22;29.79;24.79
66752;SHT31;53663;42.676;23.238;2022-10-16T08:12:48;31.32;22.91
66752;SHT31;53663;42.676;23.238;2022-10-16T08:15:13;29.06;25.80
66752;SHT31;53663;42.676;23.238;2022-10-16T08:17:39;29.27;25.30
66752;SHT31;53663;42.676;23.238;2022-10-16T08:20:05;28.61;27.45
66752;SHT31;53663;42.676;23.238;2022-10-16T08:22:30;29.82;25.44
66752;SHT31;53663;42.676;23.238;2022-10-16T08:24:56;32.98;21.44
66752;SHT31;53663;42.676;23.238;2022-10-16T08:27:22;32.24;22.29
66752;SHT31;53663;42.676;23.238;2022-10-16T08:29:50;33.49;20.79
66752;SHT31;53663;42.676;23.238;2022-10-16T08:32:16;32.00;21.60
66752;SHT31;53663;42.676;23.238;2022-10-16T08:34:41;30.81;24.15
66752;SHT31;53663;42.676;23.238;2022-10-16T08:37:07;29.75;24.80
66752;SHT31;53663;42.676;23.238;2022-10-16T08:39:36;30.02;25.42
66752;SHT31;53663;42.676;23.238;2022-10-16T08:50:26;33.12;20.52
66752;SHT31;53663;42.676;23.238;2022-10-16T08:52:54;31.55;22.96
66752;SHT31;53663;42.676;23.238;2022-10-16T08:57:55;30.99;23.37
66752;SHT31;53663;42.676;23.238;2022-10-16T09:00:20;31.96;21.43
66752;SHT31;53663;42.676;23.238;2022-10-16T09:03:07;31.80;21.82
66752;SHT31;53663;42.676;23.238;2022-10-16T09:14:57;32.24;21.80
66752;SHT31;53663;42.676;23.238;2022-10-16T09:20:13;33.54;20.07
66752;SHT31;53663;42.676;23.238;2022-10-16T09:22:41;33.40;18.71
66752;SHT31;53663;42.676;23.238;2022-10-16T09:25:12;34.60;17.58
66752;SHT31;53663;42.676;23.238;2022-10-16T09:27:39;34.12;18.49
66752;SHT31;53663;42.676;23.238;2022-10-16T09:30:16;33.82;18.86
66752;SHT31;53663;42.676;23.238;2022-10-16T09:32:43;33.30;19.03
66752;SHT31;53663;42.676;23.238;2022-10-16T09:35:21;33.12;19.46
66752;SHT31;53663;42.676;23.238;2022-10-16T09:37:50;34.19;17.97
66752;SHT31;53663;42.676;23.238;2022-10-16T09:40:38;33.29;18.74
66752;SHT31;53663;42.676;23.238;2022-10-16T09:45:59;32.57;19.59
66752;SHT31;53663;42.676;23.238;2022-10-16T09:48:28;30.91;21.51
66752;SHT31;53663;42.676;23.238;2022-10-16T09:51:00;32.57;20.61
66752;SHT31;53663;42.676;23.238;2022-10-16T09:53:42;32.76;18.93
66752;SHT31;53663;42.676;23.238;2022-10-16T09:56:10;32.88;19.01
66752;SHT31;53663;42.676;23.238;2022-10-16T09:58:42;34.98;17.00
66752;SHT31;53663;42.676;23.238;2022-10-16T10:01:13;32.13;19.23
66752;SHT31;53663;42.676;23.238;2022-10-16T10:03:42;29.85;20.31
66752;SHT31;53663;42.676;23.238;2022-10-16T10:06:25;31.43;21.14
66752;SHT31;53663;42.676;23.238;2022-10-16T10:11:49;33.60;18.88
66752;SHT31;53663;42.676;23.238;2022-10-16T10:14:21;33.78;16.88
66752;SHT31;53663;42.676;23.238;2022-10-16T10:16:48;33.20;18.87
66752;SHT31;53663;42.676;23.238;2022-10-16T10:19:22;29.16;20.85
66752;SHT31;53663;42.676;23.238;2022-10-16T10:21:49;28.89;21.26
66752;SHT31;53663;42.676;23.238;2022-10-16T10:24:17;29.26;21.36
66752;SHT31;53663;42.676;23.238;2022-10-16T10:27:06;26.76;24.37
66752;SHT31;53663;42.676;23.238;2022-10-16T10:43:01;23.45;28.60
66752;SHT31;53663;42.676;23.238;2022-10-16T10:45:43;22.49;29.92
66752;SHT31;53663;42.676;23.238;2022-10-16T10:48:19;22.10;30.18
66752;SHT31;53663;42.676;23.238;2022-10-16T10:50:49;22.50;29.71
66752;SHT31;53663;42.676;23.238;2022-10-16T10:54:15;22.98;31.29
66752;SHT31;53663;42.676;23.238;2022-10-16T11:02:52;21.84;29.69
66752;SHT31;53663;42.676;23.238;2022-10-16T11:10:33;21.54;31.31
66752;SHT31;53663;42.676;23.238;2022-10-16T11:15:50;21.67;32.42
66752;SHT31;53663;42.676;23.238;2022-10-16T11:18:22;21.71;32.82
66752;SHT31;53663;42.676;23.238;2022-10-16T11:20:52;22.06;31.72
66752;SHT31;53663;42.676;23.238;2022-10-16T11:23:33;22.09;33.39
66752;SHT31;53663;42.676;23.238;2022-10-16T11:26:04;22.43;30.23
66752;SHT31;53663;42.676;23.238;2022-10-16T11:28:45;22.28;30.10
66752;SHT31;53663;42.676;23.238;2022-10-16T11:31:32;22.01;30.56
66752;SHT31;53663;42.676;23.238;2022-10-16T11:39:27;21.92;32.94
66752;SHT31;53663;42.676;23.238;2022-10-16T11:41:59;21.97;33.75
66752;SHT31;53663;42.676;23.238;2022-10-16T11:45:00;22.32;32.73
66752;SHT31;53663;42.676;23.238;2022-10-16T11:50:06;22.28;32.04
66752;SHT31;53663;42.676;23.238;2022-10-16T11:55:37;21.14;33.27
66752;SHT31;53663;42.676;23.238;2022-10-16T12:00:40;21.95;31.68
66752;SHT31;53663;42.676;23.238;2022-10-16T12:06:22;22.19;30.20
66752;SHT31;53663;42.676;23.238;2022-10-16T12:08:51;21.77;32.22
66752;SHT31;53663;42.676;23.238;2022-10-16T12:16:32;22.19;30.69
66752;SHT31;53663;42.676;23.238;2022-10-16T12:19:28;22.39;29.59
66752;SHT31;53663;42.676;23.238;2022-10-16T12:21:57;22.59;28.59
66752;SHT31;53663;42.676;23.238;2022-10-16T12:26:52;21.85;30.26
66752;SHT31;53663;42.676;23.238;2022-10-16T12:31:59;22.16;31.59
66752;SHT31;53663;42.676;23.238;2022-10-16T12:34:33;22.73;30.87
66752;SHT31;53663;42.676;23.238;2022-10-16T12:37:14;23.14;29.33
66752;SHT31;53663;42.676;23.238;2022-10-16T12:39:40;23.45;29.02
66752;SHT31;53663;42.676;23.238;2022-10-16T12:44:49;24.92;26.79
66752;SHT31;53663;42.676;23.238;2022-10-16T12:47:22;25.13;25.08
66752;SHT31;53663;42.676;23.238;2022-10-16T12:49:53;25.63;24.98
66752;SHT31;53663;42.676;23.238;2022-10-16T12:54:56;26.29;24.20
66752;SHT31;53663;42.676;23.238;2022-10-16T13:07:59;26.39;25.06
66752;SHT31;53663;42.676;23.238;2022-10-16T13:10:31;25.47;26.17
66752;SHT31;53663;42.676;23.238;2022-10-16T13:13:22;25.26;24.60
66752;SHT31;53663;42.676;23.238;2022-10-16T13:22:11;23.97;28.79
66752;SHT31;53663;42.676;23.238;2022-10-16T13:27:39;24.96;27.41
66752;SHT31;53663;42.676;23.238;2022-10-16T13:30:14;24.89;26.06
66752;SHT31;53663;42.676;23.238;2022-10-16T13:32:45;24.31;26.72
66752;SHT31;53663;42.676;23.238;2022-10-16T13:35:23;23.89;27.69
66752;SHT31;53663;42.676;23.238;2022-10-16T13:37:50;23.37;28.96
66752;SHT31;53663;42.676;23.238;2022-10-16T13:40:21;22.45;30.73
66752;SHT31;53663;42.676;23.238;2022-10-16T13:42:48;21.40;32.22
66752;SHT31;53663;42.676;23.238;2022-10-16T13:45:20;20.82;31.69
66752;SHT31;53663;42.676;23.238;2022-10-16T13:47:46;20.81;31.89
66752;SHT31;53663;42.676;23.238;2022-10-16T13:50:14;20.43;32.68
66752;SHT31;53663;42.676;23.238;2022-10-16T13:52:40;19.87;34.02
66752;SHT31;53663;42.676;23.238;2022-10-16T13:55:17;19.92;33.92
66752;SHT31;53663;42.676;23.238;2022-10-16T13:57:44;19.24;35.65
66752;SHT31;53663;42.676;23.238;2022-10-16T14:00:22;19.27;35.70
66752;SHT31;53663;42.676;23.238;2022-10-16T14:02:57;19.17;35.77
66752;SHT31;53663;42.676;23.238;2022-10-16T14:05:23;18.90;35.53
66752;SHT31;53663;42.676;23.238;2022-10-16T14:07:50;18.67;36.86
66752;SHT31;53663;42.676;23.238;2022-10-16T14:13:04;18.60;36.80
66752;SHT31;53663;42.676;23.238;2022-10-16T14:15:31;18.26;37.32
66752;SHT31;53663;42.676;23.238;2022-10-16T14:17:58;18.19;36.88
66752;SHT31;53663;42.676;23.238;2022-10-16T14:20:29;18.14;37.39
66752;SHT31;53663;42.676;23.238;2022-10-16T14:23:29;18.11;37.95
66752;SHT31;53663;42.676;23.238;2022-10-16T14:26:16;17.97;38.04
66752;SHT31;53663;42.676;23.238;2022-10-16T14:28:43;17.78;39.70
66752;SHT31;53663;42.676;23.238;2022-10-16T14:31:35;17.67;38.98
66752;SHT31;53663;42.676;23.238;2022-10-16T14:34:02;17.63;37.86
66752;SHT31;53663;42.676;23.238;2022-10-16T14:36:29;17.60;37.45
66752;SHT31;53663;42.676;23.238;2022-10-16T14:39:17;17.39;37.80
66752;SHT31;53663;42.676;23.238;2022-10-16T14:41:47;17.33;37.73
66752;SHT31;53663;42.676;23.238;2022-10-16T14:44:13;17.35;37.62
66752;SHT31;53663;42.676;23.238;2022-10-16T14:46:41;17.01;37.69
66752;SHT31;53663;42.676;23.238;2022-10-16T14:51:37;16.91;37.73
66752;SHT31;53663;42.676;23.238;2022-10-16T14:54:03;16.85;37.97
66752;SHT31;53663;42.676;23.238;2022-10-16T14:56:33;16.82;38.04
66752;SHT31;53663;42.676;23.238;2022-10-16T14:59:00;16.72;38.84
66752;SHT31;53663;42.676;23.238;2022-10-16T15:01:26;16.63;40.32
66752;SHT31;53663;42.676;23.238;2022-10-16T15:03:51;16.46;39.44
66752;SHT31;53663;42.676;23.238;2022-10-16T15:06:20;16.33;39.26
66752;SHT31;53663;42.676;23.238;2022-10-16T15:08:47;16.13;39.73
66752;SHT31;53663;42.676;23.238;2022-10-16T15:11:16;16.19;39.50
66752;SHT31;53663;42.676;23.238;2022-10-16T15:13:42;16.00;40.28
66752;SHT31;53663;42.676;23.238;2022-10-16T15:16:12;15.88;41.10
66752;SHT31;53663;42.676;23.238;2022-10-16T15:18:38;15.81;41.64
66752;SHT31;53663;42.676;23.238;2022-10-16T15:21:03;15.71;41.65
66752;SHT31;53663;42.676;23.238;2022-10-16T15:23:29;15.66;42.34
66752;SHT31;53663;42.676;23.238;2022-10-16T15:25:56;15.68;42.16
66752;SHT31;53663;42.676;23.238;2022-10-16T15:28:23;15.65;42.05
66752;SHT31;53663;42.676;23.238;2022-10-16T15:30:51;15.42;42.82
66752;SHT31;53663;42.676;23.238;2022-10-16T15:33:23;15.30;43.27
66752;SHT31;53663;42.676;23.238;2022-10-16T15:35:51;15.24;42.92
66752;SHT31;53663;42.676;23.238;2022-10-16T15:38:18;15.21;43.33
66752;SHT31;53663;42.676;23.238;2022-10-16T15:40:45;15.11;43.44
66752;SHT31;53663;42.676;23.238;2022-10-16T15:43:11;15.10;43.25
66752;SHT31;53663;42.676;23.238;2022-10-16T15:45:36;14.96;43.83
66752;SHT31;53663;42.676;23.238;2022-10-16T15:48:02;14.84;44.53
66752;SHT31;53663;42.676;23.238;2022-10-16T15:50:29;14.76;44.26
66752;SHT31;53663;42.676;23.238;2022-10-16T15:52:55;14.72;44.54
66752;SHT31;53663;42.676;23.238;2022-10-16T15:55:21;14.53;45.72
66752;SHT31;53663;42.676;23.238;2022-10-16T15:57:47;14.55;44.70
66752;SHT31;53663;42.676;23.238;2022-10-16T16:00:15;14.46;45.49
66752;SHT31;53663;42.676;23.238;2022-10-16T16:02:42;14.35;45.56
66752;SHT31;53663;42.676;23.238;2022-10-16T16:05:09;14.28;45.92
66752;SHT31;53663;42.676;23.238;2022-10-16T16:07:35;14.11;48.42
66752;SHT31;53663;42.676;23.238;2022-10-16T16:10:04;14.14;47.03
66752;SHT31;53663;42.676;23.238;2022-10-16T16:12:30;14.07;46.99
66752;SHT31;53663;42.676;23.238;2022-10-16T16:14:56;14.04;46.76
66752;SHT31;53663;42.676;23.238;2022-10-16T16:17:21;13.93;47.46
66752;SHT31;53663;42.676;23.238;2022-10-16T16:19:47;13.88;47.14
66752;SHT31;53663;42.676;23.238;2022-10-16T16:22:12;13.83;47.67
66752;SHT31;53663;42.676;23.238;2022-10-16T16:24:38;13.71;49.34
66752;SHT31;53663;42.676;23.238;2022-10-16T16:27:04;13.55;50.94
66752;SHT31;53663;42.676;23.238;2022-10-16T16:29:29;13.40;51.19
66752;SHT31;53663;42.676;23.238;2022-10-16T16:31:55;13.32;51.94
66752;SHT31;53663;42.676;23.238;2022-10-16T16:34:24;13.35;52.77
66752;SHT31;53663;42.676;23.238;2022-10-16T16:36:50;13.22;53.56
66752;SHT31;53663;42.676;23.238;2022-10-16T16:39:16;13.15;53.25
66752;SHT31;53663;42.676;23.238;2022-10-16T16:41:42;13.22;52.77
66752;SHT31;53663;42.676;23.238;2022-10-16T16:44:09;13.23;52.63
66752;SHT31;53663;42.676;23.238;2022-10-16T16:46:36;13.15;52.77
66752;SHT31;53663;42.676;23.238;2022-10-16T16:49:02;13.01;53.02
66752;SHT31;53663;42.676;23.238;2022-10-16T16:51:28;12.84;54.04
66752;SHT31;53663;42.676;23.238;2022-10-16T16:53:54;12.71;54.97
66752;SHT31;53663;42.676;23.238;2022-10-16T16:56:21;12.70;54.95
66752;SHT31;53663;42.676;23.238;2022-10-16T16:58:52;12.65;55.21
66752;SHT31;53663;42.676;23.238;2022-10-16T17:01:19;12.70;55.01
66752;SHT31;53663;42.676;23.238;2022-10-16T17:03:45;12.57;55.00
66752;SHT31;53663;42.676;23.238;2022-10-16T17:06:12;12.50;55.29
66752;SHT31;53663;42.676;23.238;2022-10-16T17:08:40;12.50;55.44
66752;SHT31;53663;42.676;23.238;2022-10-16T17:11:06;12.44;55.69
66752;SHT31;53663;42.676;23.238;2022-10-16T17:13:36;12.46;55.58
66752;SHT31;53663;42.676;23.238;2022-10-16T17:16:04;12.50;55.32
66752;SHT31;53663;42.676;23.238;2022-10-16T17:18:30;12.41;55.52
66752;SHT31;53663;42.676;23.238;2022-10-16T17:21:05;12.44;55.21
66752;SHT31;53663;42.676;23.238;2022-10-16T17:23:32;12.43;55.21
66752;SHT31;53663;42.676;23.238;2022-10-16T17:26:10;12.37;55.29
66752;SHT31;53663;42.676;23.238;2022-10-16T17:28:37;12.32;55.62
66752;SHT31;53663;42.676;23.238;2022-10-16T17:33:37;12.13;56.46
66752;SHT31;53663;42.676;23.238;2022-10-16T17:36:03;12.12;56.89
66752;SHT31;53663;42.676;23.238;2022-10-16T17:38:29;12.06;57.57
66752;SHT31;53663;42.676;23.238;2022-10-16T17:40:55;11.92;58.57